Latest Weather Observations for Kuitpo

IDS60801

Issued at 10:02 am CDT Friday 6 March 2015 (issued every 30 minutes, with the page automatically refreshed every 10 minutes)

About weather observations | Map of weather stations | Latest weather observations for SA | Other Formats
Station Details ID: 023887 Name: KUITPO FOREST RESERVE Lat: -35.17 Lon: 138.68 Height: 365.0 m
Data from the previous 72 hours. | See also: Recent months at Kuitpo
Date/Time
CDT
Temp
°C
App
Temp
°C
Dew
Point
Rel
Hum
%
Delta-T
°C
Wind Press
QNH
hPa
Press
MSL
hPa
Rain
since 9 am
mm
Dir
 
Spd
km/h
Gust
km/h
Spd
kts
Gust
kts
06/10:00am 14.8 12.1 10.2 74 2.4 SW 15 24 8 13 1018.3 1017.3 0.0
06/09:30am 14.1 11.3 10.1 77 2.1 SW 15 24 8 13 1018.3 1017.3 0.0
06/09:00am 13.7 11.4 10.3 80 1.8 SW 13 20 7 11 1018.3 1017.3 0.0
06/08:30am 13.2 10.8 10.2 82 1.6 WSW 13 22 7 12 1018.3 1017.3 0.0
06/08:00am 12.9 10.5 10.1 83 1.5 SW 13 20 7 11 1018.1 1017.1 0.0
06/07:30am 12.7 9.9 9.9 83 1.5 SW 15 20 8 11 1018.1 1017.1 0.0
06/07:00am 12.5 8.8 9.5 82 1.6 SW 19 28 10 15 1017.9 1016.9 0.0
06/06:30am 12.0 8.5 8.8 81 1.6 SSW 17 28 9 15 1017.8 1016.8 0.0
06/06:00am 11.7 8.2 8.7 82 1.5 S 17 24 9 13 1017.9 1016.9 0.0
06/05:30am 11.3 7.8 8.9 85 1.2 SW 17 22 9 12 1017.8 1016.8 0.0
06/05:00am 11.1 7.6 8.8 86 1.2 SW 17 24 9 13 1017.8 1016.8 0.0
06/04:30am 10.9 7.4 8.8 87 1.1 SSW 17 28 9 15 1017.7 1016.7 0.0
06/04:00am 10.4 7.1 8.0 85 1.2 SW 15 22 8 12 1017.7 1016.7 0.0
06/03:30am 10.9 8.1 8.5 85 1.2 SW 13 20 7 11 1017.9 1016.9 0.0
06/03:00am 10.8 7.9 8.2 84 1.3 WSW 13 19 7 10 1018.4 1017.4 0.0
06/02:30am 11.1 8.6 8.1 82 1.5 WSW 11 17 6 9 1018.7 1017.7 0.0
06/02:00am 10.9 8.1 8.5 85 1.2 WSW 13 19 7 10 1019.4 1018.4 0.0
06/01:30am 10.0 7.4 7.6 85 1.2 SW 11 15 6 8 1020.0 1019.0 0.0
06/01:00am 10.2 7.9 7.6 84 1.3 WSW 9 13 5 7 1020.2 1019.2 0.0
06/12:30am 10.0 7.7 7.4 84 1.3 SSW 9 13 5 7 1020.3 1019.3 0.0
06/12:00am 10.0 7.7 7.4 84 1.3 SSW 9 15 5 8 1020.5 1019.5 0.0
 
Date/Time
CDT
Temp
°C
App
Temp
°C
Dew
Point
Rel
Hum
%
Delta-T
°C
Wind Press
QNH
hPa
Press
MSL
hPa
Rain
since 9 am
mm
Dir
 
Spd
km/h
Gust
km/h
Spd
kts
Gust
kts
05/11:30pm 10.1 7.7 7.2 82 1.4 SW 9 13 5 7 1020.7 1019.7 0.0
05/11:00pm 10.4 7.7 7.5 82 1.4 SW 11 15 6 8 1020.7 1019.7 0.0
05/10:30pm 10.3 7.1 7.0 80 1.6 SW 13 17 7 9 1021.2 1020.3 0.0
05/10:00pm 10.9 8.2 7.2 78 1.8 S 11 17 6 9 1021.0 1020.0 0.0
05/09:30pm 11.0 8.2 6.9 76 2.0 S 11 15 6 8 1021.0 1020.0 0.0
05/09:00pm 11.3 8.9 6.8 74 2.2 S 9 15 5 8 1020.8 1019.8 0.0
05/08:30pm 11.6 9.0 6.3 70 2.5 SSE 9 17 5 9 1020.7 1019.7 0.0
05/08:00pm 12.4 8.7 6.5 67 2.9 S 15 24 8 13 1020.7 1019.7 0.0
05/07:30pm 13.5 9.8 6.4 62 3.5 S 15 24 8 13 1020.7 1019.7 0.0
05/07:00pm 14.9 11.2 6.2 56 4.3 S 15 24 8 13 1020.4 1019.4 0.0
05/06:30pm 16.5 13.1 5.8 49 5.3 SSW 13 24 7 13 1020.3 1019.3 0.0
05/06:00pm 17.5 13.4 6.1 47 5.7 S 17 26 9 14 1020.0 1019.0 0.0
05/05:30pm 18.5 15.2 6.4 45 6.1 SSW 13 26 7 14 1019.9 1018.9 0.0
05/05:00pm 18.4 14.6 5.9 44 6.3 S 15 24 8 13 1019.9 1018.9 0.0
05/04:30pm 18.5 14.5 5.0 41 6.6 SSW 15 22 8 12 1019.9 1018.9 0.0
05/04:00pm 19.5 15.9 5.2 39 7.1 SSW 13 22 7 12 1020.1 1019.1 0.0
05/03:30pm 18.3 14.6 4.5 40 6.7 S 13 20 7 11 1020.3 1019.3 0.0
05/03:00pm 19.0 15.3 4.7 39 7.0 S 13 22 7 12 1020.8 1019.8 0.0
05/02:30pm 18.1 14.1 5.0 42 6.4 SE 15 24 8 13 1021.1 1020.1 0.0
05/02:00pm 18.6 14.6 5.1 41 6.7 SSW 15 26 8 14 1021.1 1020.1 0.0
05/01:30pm 17.0 13.0 4.7 44 5.9 SE 15 22 8 12 1021.4 1020.5 0.0
05/01:00pm 17.0 12.6 5.0 45 5.8 SE 17 28 9 15 1021.5 1020.6 0.0
05/12:30pm 16.4 12.4 4.8 46 5.6 S 15 26 8 14 1022.2 1021.2 0.0
05/12:00pm 16.1 12.1 5.1 48 5.3 S 15 24 8 13 1022.6 1021.6 0.0
05/11:30am 16.0 11.8 5.6 50 5.1 S 17 35 9 19 1022.9 1021.9 0.0
05/11:00am 15.3 10.3 3.8 46 5.4 SE 19 39 10 21 1022.8 1021.8 0.0
05/10:30am 14.1 9.8 5.2 55 4.2 SSE 17 30 9 16 1022.4 1021.4 0.0
05/10:00am 14.4 10.8 5.0 53 4.5 SSE 13 26 7 14 1022.1 1021.1 0.0
05/09:30am 13.8 9.1 5.2 56 4.1 SE 19 32 10 17 1021.8 1020.9 0.0
05/09:00am 13.7 9.5 5.6 58 3.9 SE 17 28 9 15 1021.4 1020.5 0.4
05/08:30am 12.6 8.1 6.0 64 3.2 SSE 19 30 10 16 1020.8 1019.8 0.4
05/08:00am 12.3 9.1 6.8 69 2.7 SSE 13 26 7 14 1020.6 1019.6 0.4
05/07:30am 12.2 9.4 7.1 71 2.5 SSE 11 24 6 13 1020.3 1019.3 0.4
05/07:00am 12.4 9.2 8.3 76 2.1 SSE 15 22 8 12 1020.4 1019.4 0.4
05/06:30am 12.2 9.1 8.7 79 1.8 S 15 26 8 14 1019.6 1018.6 0.4
05/06:00am 12.5 9.0 8.8 78 1.9 S 17 24 9 13 1019.2 1018.2 0.4
05/05:30am 12.5 9.1 7.8 73 2.3 S 15 22 8 12 1019.1 1018.1 0.4
05/05:00am 12.5 9.2 8.2 75 2.2 S 15 22 8 12 1019.1 1018.1 0.4
05/04:30am 12.7 8.9 9.2 79 1.8 S 19 28 10 15 1018.7 1017.7 0.4
05/04:00am 13.2 9.7 8.7 74 2.3 SSW 17 22 9 12 1018.7 1017.7 0.4
05/03:30am 13.6 9.7 9.3 75 2.2 S 20 35 11 19 1018.3 1017.3 0.4
05/03:00am 13.5 10.2 11.6 88 1.0 SSW 20 35 11 19 1018.3 1017.3 0.4
05/02:30am 13.5 10.7 12.7 95 0.4 SSW 19 37 10 20 1018.3 1017.3 0.4
05/02:00am 13.8 11.1 13.0 95 0.4 SSW 19 32 10 17 1018.4 1017.4 0.4
05/01:30am 13.5 11.3 13.3 99 0.1 SSW 17 28 9 15 1018.6 1017.6 0.4
05/01:00am 13.5 10.4 13.5 100 0.0 SW 22 33 12 18 1018.3 1017.3 0.4
05/12:30am 14.6 11.7 13.0 90 0.9 SW 20 32 11 17 1018.0 1017.0 0.0
05/12:00am 15.2 13.0 12.0 81 1.8 SW 15 26 8 14 1018.1 1017.1 0.0
 
Date/Time
CDT
Temp
°C
App
Temp
°C
Dew
Point
Rel
Hum
%
Delta-T
°C
Wind Press
QNH
hPa
Press
MSL
hPa
Rain
since 9 am
mm
Dir
 
Spd
km/h
Gust
km/h
Spd
kts
Gust
kts
04/11:30pm 15.1 11.8 11.7 80 1.9 SW 20 33 11 18 1017.8 1016.8 0.0
04/11:11pm 15.6 10.9 12.0 79 2.0 WSW 28 50 15 27 1017.8 1016.8 0.0
04/11:00pm 15.7 11.8 12.1 79 2.0 WSW 24 35 13 19 1017.9 1016.9 0.0
04/10:30pm 15.7 12.2 12.3 80 1.9 WSW 22 35 12 19 1017.9 1016.9 0.0
04/10:00pm 15.8 11.7 13.8 88 1.1 WSW 28 41 15 22 1017.7 1016.7 0.0
04/09:30pm 15.8 13.0 13.3 85 1.4 WSW 20 37 11 20 1017.5 1016.5 0.0
04/09:00pm 15.9 12.7 13.2 84 1.5 WSW 22 39 12 21 1017.2 1016.2 0.0
04/08:43pm 15.9 11.5 12.8 82 1.7 WSW 28 52 15 28 1016.9 1015.9 0.0
04/08:30pm 15.9 11.8 12.6 81 1.8 WSW 26 44 14 24 1016.9 1015.9 0.0
04/08:00pm 15.9 12.1 12.5 80 1.9 WSW 24 41 13 22 1016.5 1015.5 0.0
04/07:30pm 15.9 12.1 12.5 80 1.9 WSW 24 43 13 23 1016.5 1015.5 0.0
04/07:00pm 16.5 12.3 11.2 71 2.9 WSW 24 39 13 21 1016.2 1015.1 0.0
04/06:30pm 17.9 13.9 10.3 61 4.1 WSW 22 35 12 19 1016.0 1015.0 0.0
04/06:00pm 17.9 13.8 11.5 66 3.6 WSW 24 37 13 20 1016.2 1015.1 0.0
04/05:30pm 18.2 14.3 10.8 62 4.1 WSW 22 35 12 19 1015.8 1014.8 0.0
04/05:00pm 18.1 13.8 10.7 62 4.1 WSW 24 43 13 23 1015.8 1014.8 0.0
04/04:30pm 19.1 14.6 9.9 55 5.0 W 24 39 13 21 1015.9 1014.9 0.0
04/04:00pm 19.1 15.1 10.4 57 4.8 WSW 22 39 12 21 1016.0 1015.0 0.0
04/03:30pm 19.3 14.7 9.8 54 5.1 WSW 24 37 13 20 1016.5 1015.5 0.0
04/03:00pm 18.2 14.1 10.1 59 4.4 WSW 22 35 12 19 1017.1 1016.1 0.0
04/02:30pm 18.1 14.1 9.2 56 4.7 WSW 20 35 11 19 1017.3 1016.3 0.0
04/02:00pm 19.2 15.5 9.4 53 5.3 WSW 19 35 10 19 1017.6 1016.6 0.0
04/01:30pm 17.8 13.8 8.9 56 4.7 W 20 35 11 19 1017.6 1016.6 0.0
04/01:00pm 18.4 15.0 9.2 55 4.9 WSW 17 32 9 17 1017.8 1016.8 0.0
04/12:30pm 17.9 14.0 9.3 57 4.6 WSW 20 32 11 17 1018.1 1017.1 0.0
04/12:00pm 16.6 12.5 8.8 60 4.1 WSW 20 33 11 18 1018.3 1017.3 0.0
04/11:30am 17.2 13.5 9.6 61 4.0 WSW 19 30 10 16 1018.4 1017.4 0.0
04/11:00am 16.9 13.4 10.1 64 3.7 W 19 32 10 17 1018.3 1017.3 0.0
04/10:30am 16.3 13.7 9.5 64 3.6 W 13 20 7 11 1018.2 1017.2 0.0
04/10:00am 15.1 12.7 9.9 71 2.8 WSW 13 20 7 11 1018.3 1017.3 0.0
04/09:30am 14.7 12.3 9.9 73 2.5 WSW 13 20 7 11 1018.3 1017.3 0.0
04/09:00am 14.0 12.7 10.0 77 2.1 W 7 9 4 5 1018.3 1017.3 0.2
04/08:30am 13.5 11.8 9.7 78 2.0 WSW 9 15 5 8 1018.1 1017.1 0.2
04/08:00am 12.8 11.3 10.5 86 1.2 WSW 9 11 5 6 1017.9 1016.9 0.2
04/07:30am 11.2 9.9 9.8 91 0.7 W 7 9 4 5 1017.4 1016.4 0.2
04/07:00am 11.1 9.7 9.4 89 0.9 W 7 9 4 5 1017.3 1016.3 0.2
04/06:30am 11.1 9.4 9.7 91 0.7 SW 9 11 5 6 1017.1 1016.1 0.2
04/06:00am 11.1 9.3 9.5 90 0.8 SW 9 11 5 6 1017.0 1016.0 0.2
04/05:30am 11.7 9.7 10.1 90 0.8 S 11 13 6 7 1016.8 1015.8 0.2
04/05:00am 11.4 9.4 10.0 91 0.7 S 11 15 6 8 1016.6 1015.6 0.2
04/04:30am 11.4 9.4 10.1 92 0.7 SE 11 17 6 9 1016.5 1015.5 0.2
04/04:00am 11.3 9.3 10.0 92 0.7 SSE 11 15 6 8 1016.8 1015.8 0.2
04/03:30am 11.4 9.5 10.5 94 0.5 SSE 11 17 6 9 1017.0 1016.0 0.2
04/03:00am 11.5 9.3 10.7 95 0.4 SE 13 19 7 10 1017.1 1016.1 0.2
04/02:30am 11.6 9.4 10.8 95 0.4 SSE 13 17 7 9 1017.7 1016.7 0.2
04/02:00am 11.8 10.0 10.9 94 0.5 SSE 11 17 6 9 1017.9 1016.9 0.2
04/01:30am 11.9 9.7 10.8 93 0.6 SE 13 19 7 10 1017.9 1016.9 0.2
04/01:00am 12.0 9.9 11.1 94 0.5 SSE 13 19 7 10 1018.0 1017.0 0.2
04/12:30am 12.2 10.1 11.1 93 0.6 SSE 13 17 7 9 1018.1 1017.1 0.2
04/12:00am 12.4 10.3 11.1 92 0.7 SSE 13 19 7 10 1018.3 1017.3 0.2
 
Date/Time
CDT
Temp
°C
App
Temp
°C
Dew
Point
Rel
Hum
%
Delta-T
°C
Wind Press
QNH
hPa
Press
MSL
hPa
Rain
since 9 am
mm
Dir
 
Spd
km/h
Gust
km/h
Spd
kts
Gust
kts
03/11:30pm 12.8 10.4 11.4 91 0.8 SE 15 22 8 12 1018.4 1017.4 0.2
03/11:00pm 12.9 10.6 11.6 92 0.7 SE 15 22 8 12 1018.4 1017.4 0.2
03/10:30pm 13.0 10.7 11.6 91 0.8 SE 15 20 8 11 1018.3 1017.3 0.2
03/10:00pm 13.2 10.5 11.6 90 0.9 SE 17 20 9 11 1018.3 1017.3 0.2
03/09:30pm 13.2 10.3 11.1 87 1.1 SE 17 24 9 13 1018.3 1017.3 0.2
03/09:00pm 13.6 10.7 11.1 85 1.3 SE 17 22 9 12 1018.1 1017.1 0.2
03/08:30pm 14.0 11.0 10.8 81 1.7 SSE 17 28 9 15 1017.7 1016.7 0.2
03/08:00pm 14.5 10.8 10.1 75 2.3 SE 20 30 11 16 1017.3 1016.3 0.2
03/07:30pm 15.6 12.3 9.5 67 3.2 SE 17 26 9 14 1017.0 1016.0 0.2
03/07:00pm 16.7 13.2 8.9 60 4.1 SE 17 26 9 14 1016.7 1015.7 0.2
03/06:30pm 17.4 13.9 8.8 57 4.5 SE 17 26 9 14 1016.5 1015.5 0.2
03/06:00pm 18.7 15.2 8.9 53 5.2 SSE 17 26 9 14 1016.3 1015.2 0.2
03/05:30pm 18.6 14.2 8.8 53 5.2 SE 22 33 12 18 1016.3 1015.2 0.2
03/05:00pm 20.3 16.7 8.3 46 6.4 SE 17 28 9 15 1016.0 1015.0 0.2
03/04:30pm 19.9 15.7 7.6 45 6.4 SSE 19 28 10 15 1016.0 1015.0 0.2
03/04:00pm 20.2 16.1 8.5 47 6.2 SE 20 33 11 18 1016.0 1015.0 0.2
03/03:30pm 19.5 15.1 8.8 50 5.7 SE 22 37 12 20 1016.3 1015.2 0.2
03/03:00pm 20.5 17.1 9.1 48 6.1 SE 17 28 9 15 1016.7 1015.7 0.2
03/02:30pm 20.9 17.6 9.5 48 6.2 SSE 17 26 9 14 1016.8 1015.8 0.2
03/02:00pm 20.6 17.0 9.8 50 5.9 ESE 19 32 10 17 1016.9 1015.9 0.2
03/01:30pm 20.6 18.1 9.8 50 5.9 ESE 13 26 7 14 1017.3 1016.3 0.2
03/01:00pm 21.0 18.2 9.9 49 6.1 SSE 15 24 8 13 1017.6 1016.6 0.2
03/12:30pm 20.9 19.1 10.7 52 5.7 S 11 20 6 11 1017.9 1016.9 0.2
03/12:00pm 19.5 16.5 10.5 56 4.9 SE 17 32 9 17 1018.3 1017.3 0.0
03/11:30am 18.3 15.3 10.7 61 4.2 SSE 17 26 9 14 1018.5 1017.5 0.0
03/11:00am 17.5 14.6 10.9 65 3.6 SE 17 28 9 15 1018.4 1017.4 0.0
03/10:30am 16.5 13.6 11.0 70 3.0 SSE 17 22 9 12 1018.4 1017.4 0.0

Other Formats:

Comma delimited format used in spreadsheet applications
http://www.bom.gov.au/fwo/IDS60801/IDS60801.94683.axf

JavaScript Object Notation format (JSON) in row-major order
http://www.bom.gov.au/fwo/IDS60801/IDS60801.94683.json